sensor_id;sensor_type;location;lat;lon;timestamp;temperature;humidity
32787;DHT22;19139;49.372;8.580;2023-12-14T00:02:11;19.60;91.90
32787;DHT22;19139;49.372;8.580;2023-12-14T00:04:38;19.70;91.90
32787;DHT22;19139;49.372;8.580;2023-12-14T00:07:05;19.70;91.90
32787;DHT22;19139;49.372;8.580;2023-12-14T00:09:31;19.70;91.90
32787;DHT22;19139;49.372;8.580;2023-12-14T00:11:58;19.70;91.90
32787;DHT22;19139;49.372;8.580;2023-12-14T00:14:25;19.70;91.90
32787;DHT22;19139;49.372;8.580;2023-12-14T00:16:51;19.60;91.80
32787;DHT22;19139;49.372;8.580;2023-12-14T00:19:19;19.70;91.90
32787;DHT22;19139;49.372;8.580;2023-12-14T00:21:46;19.70;91.80
32787;DHT22;19139;49.372;8.580;2023-12-14T00:24:14;19.60;91.80
32787;DHT22;19139;49.372;8.580;2023-12-14T00:26:40;19.60;91.80
32787;DHT22;19139;49.372;8.580;2023-12-14T00:29:07;19.60;91.80
32787;DHT22;19139;49.372;8.580;2023-12-14T00:31:34;19.70;91.90
32787;DHT22;19139;49.372;8.580;2023-12-14T00:34:00;19.60;91.80
32787;DHT22;19139;49.372;8.580;2023-12-14T00:36:27;19.70;91.80
32787;DHT22;19139;49.372;8.580;2023-12-14T00:38:55;19.60;91.80
32787;DHT22;19139;49.372;8.580;2023-12-14T00:41:22;19.60;91.80
32787;DHT22;19139;49.372;8.580;2023-12-14T00:43:48;19.60;91.80
32787;DHT22;19139;49.372;8.580;2023-12-14T00:46:15;19.60;91.80
32787;DHT22;19139;49.372;8.580;2023-12-14T00:48:42;19.60;91.80
32787;DHT22;19139;49.372;8.580;2023-12-14T00:51:09;19.60;91.80
32787;DHT22;19139;49.372;8.580;2023-12-14T00:53:35;19.60;91.80
32787;DHT22;19139;49.372;8.580;2023-12-14T00:56:02;19.60;91.80
32787;DHT22;19139;49.372;8.580;2023-12-14T00:58:29;19.60;91.80
32787;DHT22;19139;49.372;8.580;2023-12-14T01:00:56;19.60;91.80
32787;DHT22;19139;49.372;8.580;2023-12-14T01:03:22;19.60;91.70
32787;DHT22;19139;49.372;8.580;2023-12-14T01:05:49;19.60;91.70
32787;DHT22;19139;49.372;8.580;2023-12-14T01:08:16;19.60;91.80
32787;DHT22;19139;49.372;8.580;2023-12-14T01:10:43;19.60;91.80
32787;DHT22;19139;49.372;8.580;2023-12-14T01:13:10;19.60;91.70
32787;DHT22;19139;49.372;8.580;2023-12-14T01:15:36;19.60;91.70
32787;DHT22;19139;49.372;8.580;2023-12-14T01:18:03;19.60;91.70
32787;DHT22;19139;49.372;8.580;2023-12-14T01:20:30;19.60;91.70
32787;DHT22;19139;49.372;8.580;2023-12-14T01:22:57;19.60;91.70
32787;DHT22;19139;49.372;8.580;2023-12-14T01:25:24;19.60;91.80
32787;DHT22;19139;49.372;8.580;2023-12-14T01:27:50;19.60;91.70
32787;DHT22;19139;49.372;8.580;2023-12-14T01:30:17;19.60;91.70
32787;DHT22;19139;49.372;8.580;2023-12-14T01:32:44;19.60;91.70
32787;DHT22;19139;49.372;8.580;2023-12-14T01:35:11;19.60;91.70
32787;DHT22;19139;49.372;8.580;2023-12-14T01:37:38;19.60;91.70
32787;DHT22;19139;49.372;8.580;2023-12-14T01:40:05;19.60;91.70
32787;DHT22;19139;49.372;8.580;2023-12-14T01:42:32;19.60;91.70
32787;DHT22;19139;49.372;8.580;2023-12-14T01:44:59;19.60;91.70
32787;DHT22;19139;49.372;8.580;2023-12-14T01:47:26;19.60;91.70
32787;DHT22;19139;49.372;8.580;2023-12-14T01:49:52;19.60;91.80
32787;DHT22;19139;49.372;8.580;2023-12-14T01:52:19;19.60;91.70
32787;DHT22;19139;49.372;8.580;2023-12-14T01:54:46;19.60;91.70
32787;DHT22;19139;49.372;8.580;2023-12-14T01:57:12;19.60;91.70
32787;DHT22;19139;49.372;8.580;2023-12-14T01:59:39;19.60;91.70
32787;DHT22;19139;49.372;8.580;2023-12-14T02:02:06;19.60;91.70
32787;DHT22;19139;49.372;8.580;2023-12-14T02:04:33;19.60;91.70
32787;DHT22;19139;49.372;8.580;2023-12-14T02:07:00;19.60;91.70
32787;DHT22;19139;49.372;8.580;2023-12-14T02:09:27;19.60;91.70
32787;DHT22;19139;49.372;8.580;2023-12-14T02:11:53;19.60;91.70
32787;DHT22;19139;49.372;8.580;2023-12-14T02:14:21;19.60;91.70
32787;DHT22;19139;49.372;8.580;2023-12-14T02:16:48;19.60;91.60
32787;DHT22;19139;49.372;8.580;2023-12-14T02:19:15;19.60;91.60
32787;DHT22;19139;49.372;8.580;2023-12-14T02:21:42;19.60;91.60
32787;DHT22;19139;49.372;8.580;2023-12-14T02:24:09;19.60;91.60
32787;DHT22;19139;49.372;8.580;2023-12-14T02:26:35;19.60;91.60
32787;DHT22;19139;49.372;8.580;2023-12-14T02:29:02;19.60;91.60
32787;DHT22;19139;49.372;8.580;2023-12-14T02:31:29;19.60;91.60
32787;DHT22;19139;49.372;8.580;2023-12-14T02:33:55;19.60;92.00
32787;DHT22;19139;49.372;8.580;2023-12-14T02:36:22;19.60;91.60
32787;DHT22;19139;49.372;8.580;2023-12-14T02:38:49;19.60;91.60
32787;DHT22;19139;49.372;8.580;2023-12-14T02:41:15;19.60;91.60
32787;DHT22;19139;49.372;8.580;2023-12-14T02:43:42;19.60;91.60
32787;DHT22;19139;49.372;8.580;2023-12-14T02:46:09;19.60;91.60
32787;DHT22;19139;49.372;8.580;2023-12-14T02:48:38;19.60;91.60
32787;DHT22;19139;49.372;8.580;2023-12-14T02:51:07;19.60;91.60
32787;DHT22;19139;49.372;8.580;2023-12-14T02:53:34;19.60;91.60
32787;DHT22;19139;49.372;8.580;2023-12-14T02:56:04;19.60;91.60
32787;DHT22;19139;49.372;8.580;2023-12-14T02:58:30;19.60;91.60
32787;DHT22;19139;49.372;8.580;2023-12-14T03:00:57;19.60;91.60
32787;DHT22;19139;49.372;8.580;2023-12-14T03:03:24;19.60;91.60
32787;DHT22;19139;49.372;8.580;2023-12-14T03:05:50;19.60;91.60
32787;DHT22;19139;49.372;8.580;2023-12-14T03:08:17;19.60;91.60
32787;DHT22;19139;49.372;8.580;2023-12-14T03:10:44;19.60;91.50
32787;DHT22;19139;49.372;8.580;2023-12-14T03:13:10;19.60;91.50
32787;DHT22;19139;49.372;8.580;2023-12-14T03:15:37;19.60;91.60
32787;DHT22;19139;49.372;8.580;2023-12-14T03:18:03;19.60;91.50
32787;DHT22;19139;49.372;8.580;2023-12-14T03:20:30;19.60;91.50
32787;DHT22;19139;49.372;8.580;2023-12-14T03:22:57;19.60;91.50
32787;DHT22;19139;49.372;8.580;2023-12-14T03:25:24;19.60;91.50
32787;DHT22;19139;49.372;8.580;2023-12-14T03:27:50;19.60;91.90
32787;DHT22;19139;49.372;8.580;2023-12-14T03:30:17;19.50;91.50
32787;DHT22;19139;49.372;8.580;2023-12-14T03:32:44;19.50;91.50
32787;DHT22;19139;49.372;8.580;2023-12-14T03:35:10;19.50;91.50
32787;DHT22;19139;49.372;8.580;2023-12-14T03:37:37;19.50;91.50
32787;DHT22;19139;49.372;8.580;2023-12-14T03:40:04;19.50;91.50
32787;DHT22;19139;49.372;8.580;2023-12-14T03:42:31;19.60;91.50
32787;DHT22;19139;49.372;8.580;2023-12-14T03:44:58;19.60;91.50
32787;DHT22;19139;49.372;8.580;2023-12-14T03:47:25;19.50;91.50
32787;DHT22;19139;49.372;8.580;2023-12-14T03:49:51;19.50;91.50
32787;DHT22;19139;49.372;8.580;2023-12-14T03:52:18;19.50;91.50
32787;DHT22;19139;49.372;8.580;2023-12-14T03:54:45;19.50;91.50
32787;DHT22;19139;49.372;8.580;2023-12-14T03:57:12;19.50;91.50
32787;DHT22;19139;49.372;8.580;2023-12-14T03:59:39;19.50;91.50
32787;DHT22;19139;49.372;8.580;2023-12-14T04:02:06;19.50;91.50
32787;DHT22;19139;49.372;8.580;2023-12-14T04:04:33;19.50;91.50
32787;DHT22;19139;49.372;8.580;2023-12-14T04:07:00;19.60;91.50
32787;DHT22;19139;49.372;8.580;2023-12-14T04:09:27;19.50;91.50
32787;DHT22;19139;49.372;8.580;2023-12-14T04:11:53;19.50;91.50
32787;DHT22;19139;49.372;8.580;2023-12-14T04:14:20;19.50;91.50
32787;DHT22;19139;49.372;8.580;2023-12-14T04:16:47;19.50;91.50
32787;DHT22;19139;49.372;8.580;2023-12-14T04:19:13;19.50;91.40
32787;DHT22;19139;49.372;8.580;2023-12-14T04:21:40;19.50;91.40
32787;DHT22;19139;49.372;8.580;2023-12-14T04:24:07;19.50;91.40
32787;DHT22;19139;49.372;8.580;2023-12-14T04:26:35;19.50;91.50
32787;DHT22;19139;49.372;8.580;2023-12-14T04:29:02;19.50;91.40
32787;DHT22;19139;49.372;8.580;2023-12-14T04:31:29;19.50;91.40
32787;DHT22;19139;49.372;8.580;2023-12-14T04:33:56;19.50;91.40
32787;DHT22;19139;49.372;8.580;2023-12-14T04:36:23;19.50;91.40
32787;DHT22;19139;49.372;8.580;2023-12-14T04:38:49;19.50;91.40
32787;DHT22;19139;49.372;8.580;2023-12-14T04:41:16;19.50;91.40
32787;DHT22;19139;49.372;8.580;2023-12-14T04:43:43;19.50;91.40
32787;DHT22;19139;49.372;8.580;2023-12-14T04:46:10;19.50;91.40
32787;DHT22;19139;49.372;8.580;2023-12-14T04:48:36;19.50;91.40
32787;DHT22;19139;49.372;8.580;2023-12-14T04:51:03;19.50;91.40
32787;DHT22;19139;49.372;8.580;2023-12-14T04:53:30;19.50;91.40
32787;DHT22;19139;49.372;8.580;2023-12-14T04:55:57;19.50;91.40
32787;DHT22;19139;49.372;8.580;2023-12-14T04:58:24;19.50;91.40
32787;DHT22;19139;49.372;8.580;2023-12-14T05:00:50;19.50;91.40
32787;DHT22;19139;49.372;8.580;2023-12-14T05:03:17;19.50;91.40
32787;DHT22;19139;49.372;8.580;2023-12-14T05:05:44;19.50;91.40
32787;DHT22;19139;49.372;8.580;2023-12-14T05:08:10;19.50;91.40
32787;DHT22;19139;49.372;8.580;2023-12-14T05:10:37;19.50;91.40
32787;DHT22;19139;49.372;8.580;2023-12-14T05:13:04;19.50;91.40
32787;DHT22;19139;49.372;8.580;2023-12-14T05:15:31;19.50;91.40
32787;DHT22;19139;49.372;8.580;2023-12-14T05:17:57;19.50;91.40
32787;DHT22;19139;49.372;8.580;2023-12-14T05:20:24;19.50;91.40
32787;DHT22;19139;49.372;8.580;2023-12-14T05:22:51;19.50;91.40
32787;DHT22;19139;49.372;8.580;2023-12-14T05:25:18;19.50;91.40
32787;DHT22;19139;49.372;8.580;2023-12-14T05:27:45;19.50;91.40
32787;DHT22;19139;49.372;8.580;2023-12-14T05:30:12;19.50;91.40
32787;DHT22;19139;49.372;8.580;2023-12-14T05:32:38;19.50;91.40
32787;DHT22;19139;49.372;8.580;2023-12-14T05:35:06;19.50;91.40
32787;DHT22;19139;49.372;8.580;2023-12-14T05:37:33;19.50;91.40
32787;DHT22;19139;49.372;8.580;2023-12-14T05:40:00;19.50;91.40
32787;DHT22;19139;49.372;8.580;2023-12-14T05:42:26;19.50;91.40
32787;DHT22;19139;49.372;8.580;2023-12-14T05:44:53;19.50;91.40
32787;DHT22;19139;49.372;8.580;2023-12-14T05:47:20;19.50;91.40
32787;DHT22;19139;49.372;8.580;2023-12-14T05:49:47;19.50;91.40
32787;DHT22;19139;49.372;8.580;2023-12-14T05:52:14;19.50;91.40
32787;DHT22;19139;49.372;8.580;2023-12-14T05:54:40;19.50;91.40
32787;DHT22;19139;49.372;8.580;2023-12-14T05:57:07;19.40;91.40
32787;DHT22;19139;49.372;8.580;2023-12-14T05:59:34;19.50;91.40
32787;DHT22;19139;49.372;8.580;2023-12-14T06:02:01;19.50;91.40
32787;DHT22;19139;49.372;8.580;2023-12-14T06:04:28;19.50;91.40
32787;DHT22;19139;49.372;8.580;2023-12-14T06:06:55;19.50;91.40
32787;DHT22;19139;49.372;8.580;2023-12-14T06:09:21;19.50;91.40
32787;DHT22;19139;49.372;8.580;2023-12-14T06:11:52;19.50;91.80
32787;DHT22;19139;49.372;8.580;2023-12-14T06:14:19;19.50;92.10
32787;DHT22;19139;49.372;8.580;2023-12-14T06:16:45;19.50;92.20
32787;DHT22;19139;49.372;8.580;2023-12-14T06:19:12;19.50;92.30
32787;DHT22;19139;49.372;8.580;2023-12-14T06:21:40;19.50;92.20
32787;DHT22;19139;49.372;8.580;2023-12-14T06:24:07;19.50;92.20
32787;DHT22;19139;49.372;8.580;2023-12-14T06:26:34;19.50;92.10
32787;DHT22;19139;49.372;8.580;2023-12-14T06:29:00;19.50;92.10
32787;DHT22;19139;49.372;8.580;2023-12-14T06:31:27;19.50;92.10
32787;DHT22;19139;49.372;8.580;2023-12-14T06:33:54;19.50;92.10
32787;DHT22;19139;49.372;8.580;2023-12-14T06:36:26;19.50;92.00
32787;DHT22;19139;49.372;8.580;2023-12-14T06:38:59;19.50;92.00
32787;DHT22;19139;49.372;8.580;2023-12-14T06:41:28;19.50;92.00
32787;DHT22;19139;49.372;8.580;2023-12-14T06:43:55;19.50;92.00
32787;DHT22;19139;49.372;8.580;2023-12-14T06:46:22;19.50;91.90
32787;DHT22;19139;49.372;8.580;2023-12-14T06:48:48;19.50;91.90
32787;DHT22;19139;49.372;8.580;2023-12-14T06:51:15;19.50;91.90
32787;DHT22;19139;49.372;8.580;2023-12-14T06:53:43;19.50;91.90
32787;DHT22;19139;49.372;8.580;2023-12-14T06:56:10;19.40;91.90
32787;DHT22;19139;49.372;8.580;2023-12-14T06:58:42;19.50;91.90
32787;DHT22;19139;49.372;8.580;2023-12-14T07:01:15;19.40;91.90
32787;DHT22;19139;49.372;8.580;2023-12-14T07:03:43;19.40;91.80
32787;DHT22;19139;49.372;8.580;2023-12-14T07:06:14;19.40;91.80
32787;DHT22;19139;49.372;8.580;2023-12-14T07:08:42;19.40;91.80
32787;DHT22;19139;49.372;8.580;2023-12-14T07:11:09;19.40;91.80
32787;DHT22;19139;49.372;8.580;2023-12-14T07:13:35;19.40;91.80
32787;DHT22;19139;49.372;8.580;2023-12-14T07:16:12;19.40;91.80
32787;DHT22;19139;49.372;8.580;2023-12-14T07:18:40;19.40;91.80
32787;DHT22;19139;49.372;8.580;2023-12-14T07:21:08;19.40;91.80
32787;DHT22;19139;49.372;8.580;2023-12-14T07:23:35;19.40;91.80
32787;DHT22;19139;49.372;8.580;2023-12-14T07:26:03;19.40;91.80
32787;DHT22;19139;49.372;8.580;2023-12-14T07:28:33;19.40;91.70
32787;DHT22;19139;49.372;8.580;2023-12-14T07:31:00;19.50;91.80
32787;DHT22;19139;49.372;8.580;2023-12-14T07:33:27;19.40;91.70
32787;DHT22;19139;49.372;8.580;2023-12-14T07:35:53;19.40;91.70
32787;DHT22;19139;49.372;8.580;2023-12-14T07:38:21;19.40;91.70
32787;DHT22;19139;49.372;8.580;2023-12-14T07:40:47;19.40;91.70
32787;DHT22;19139;49.372;8.580;2023-12-14T07:43:16;19.40;91.70
32787;DHT22;19139;49.372;8.580;2023-12-14T07:45:43;19.40;91.70
32787;DHT22;19139;49.372;8.580;2023-12-14T07:48:10;19.40;91.70
32787;DHT22;19139;49.372;8.580;2023-12-14T07:50:37;19.40;91.70
32787;DHT22;19139;49.372;8.580;2023-12-14T07:53:04;19.40;91.70
32787;DHT22;19139;49.372;8.580;2023-12-14T07:55:31;19.40;91.70
32787;DHT22;19139;49.372;8.580;2023-12-14T07:57:58;19.40;91.70
32787;DHT22;19139;49.372;8.580;2023-12-14T08:00:24;19.40;91.70
32787;DHT22;19139;49.372;8.580;2023-12-14T08:02:51;19.40;91.70
32787;DHT22;19139;49.372;8.580;2023-12-14T08:05:18;19.40;91.60
32787;DHT22;19139;49.372;8.580;2023-12-14T08:07:45;19.40;91.60
32787;DHT22;19139;49.372;8.580;2023-12-14T08:10:12;19.40;91.60
32787;DHT22;19139;49.372;8.580;2023-12-14T08:12:38;19.40;91.60
32787;DHT22;19139;49.372;8.580;2023-12-14T08:15:05;19.40;91.60
32787;DHT22;19139;49.372;8.580;2023-12-14T08:17:32;19.40;91.60
32787;DHT22;19139;49.372;8.580;2023-12-14T08:19:59;19.40;91.60
32787;DHT22;19139;49.372;8.580;2023-12-14T08:22:26;19.40;91.60
32787;DHT22;19139;49.372;8.580;2023-12-14T08:24:53;19.40;91.60
32787;DHT22;19139;49.372;8.580;2023-12-14T08:27:19;19.40;91.60
32787;DHT22;19139;49.372;8.580;2023-12-14T08:29:46;19.40;91.60
32787;DHT22;19139;49.372;8.580;2023-12-14T08:32:12;19.40;91.60
32787;DHT22;19139;49.372;8.580;2023-12-14T08:34:40;19.40;91.60
32787;DHT22;19139;49.372;8.580;2023-12-14T08:37:07;19.40;91.60
32787;DHT22;19139;49.372;8.580;2023-12-14T08:39:33;19.40;91.60
32787;DHT22;19139;49.372;8.580;2023-12-14T08:42:00;19.40;91.50
32787;DHT22;19139;49.372;8.580;2023-12-14T08:44:27;19.40;91.50
32787;DHT22;19139;49.372;8.580;2023-12-14T08:46:53;19.40;91.90
32787;DHT22;19139;49.372;8.580;2023-12-14T08:49:20;19.40;91.50
32787;DHT22;19139;49.372;8.580;2023-12-14T08:51:49;19.40;91.50
32787;DHT22;19139;49.372;8.580;2023-12-14T08:54:16;19.40;91.50
32787;DHT22;19139;49.372;8.580;2023-12-14T08:56:43;19.40;91.50
32787;DHT22;19139;49.372;8.580;2023-12-14T08:59:10;19.40;91.50
32787;DHT22;19139;49.372;8.580;2023-12-14T09:01:37;19.40;91.50
32787;DHT22;19139;49.372;8.580;2023-12-14T09:04:04;19.40;91.50
32787;DHT22;19139;49.372;8.580;2023-12-14T09:06:30;19.40;91.70
32787;DHT22;19139;49.372;8.580;2023-12-14T09:08:57;19.40;91.90
32787;DHT22;19139;49.372;8.580;2023-12-14T09:11:24;19.50;92.00
32787;DHT22;19139;49.372;8.580;2023-12-14T09:13:50;19.50;92.00
32787;DHT22;19139;49.372;8.580;2023-12-14T09:16:17;19.50;92.10
32787;DHT22;19139;49.372;8.580;2023-12-14T09:18:44;19.50;92.10
32787;DHT22;19139;49.372;8.580;2023-12-14T09:21:10;19.50;92.10
32787;DHT22;19139;49.372;8.580;2023-12-14T09:23:37;19.50;92.10
32787;DHT22;19139;49.372;8.580;2023-12-14T09:26:04;19.50;92.00
32787;DHT22;19139;49.372;8.580;2023-12-14T09:28:31;19.50;92.00
32787;DHT22;19139;49.372;8.580;2023-12-14T09:30:57;19.50;92.00
32787;DHT22;19139;49.372;8.580;2023-12-14T09:33:25;19.50;92.00
32787;DHT22;19139;49.372;8.580;2023-12-14T09:35:52;19.50;91.90
32787;DHT22;19139;49.372;8.580;2023-12-14T09:38:18;19.50;91.90
32787;DHT22;19139;49.372;8.580;2023-12-14T09:40:45;19.40;91.90
32787;DHT22;19139;49.372;8.580;2023-12-14T09:43:12;19.50;91.90
32787;DHT22;19139;49.372;8.580;2023-12-14T09:45:41;19.40;91.90
32787;DHT22;19139;49.372;8.580;2023-12-14T09:48:11;19.40;91.90
32787;DHT22;19139;49.372;8.580;2023-12-14T09:50:39;19.50;91.80
32787;DHT22;19139;49.372;8.580;2023-12-14T09:53:07;19.40;91.80
32787;DHT22;19139;49.372;8.580;2023-12-14T09:55:35;19.50;91.80
32787;DHT22;19139;49.372;8.580;2023-12-14T09:58:02;19.50;91.80
32787;DHT22;19139;49.372;8.580;2023-12-14T10:00:34;19.40;91.80
32787;DHT22;19139;49.372;8.580;2023-12-14T10:03:29;19.40;91.80
32787;DHT22;19139;49.372;8.580;2023-12-14T10:05:56;19.40;91.80
32787;DHT22;19139;49.372;8.580;2023-12-14T10:08:24;19.40;91.80
32787;DHT22;19139;49.372;8.580;2023-12-14T10:10:53;19.50;91.80
32787;DHT22;19139;49.372;8.580;2023-12-14T10:13:36;19.40;91.70
32787;DHT22;19139;49.372;8.580;2023-12-14T10:16:03;19.50;91.80
32787;DHT22;19139;49.372;8.580;2023-12-14T10:18:31;19.50;91.80
32787;DHT22;19139;49.372;8.580;2023-12-14T10:21:01;19.40;91.70
32787;DHT22;19139;49.372;8.580;2023-12-14T10:23:28;19.40;91.70
32787;DHT22;19139;49.372;8.580;2023-12-14T10:25:54;19.40;91.70
32787;DHT22;19139;49.372;8.580;2023-12-14T10:28:22;19.40;92.00
32787;DHT22;19139;49.372;8.580;2023-12-14T10:30:49;19.40;91.70
32787;DHT22;19139;49.372;8.580;2023-12-14T10:33:16;19.40;91.70
32787;DHT22;19139;49.372;8.580;2023-12-14T10:35:43;19.40;91.70
32787;DHT22;19139;49.372;8.580;2023-12-14T10:38:12;19.50;91.70
32787;DHT22;19139;49.372;8.580;2023-12-14T10:40:41;19.40;91.70
32787;DHT22;19139;49.372;8.580;2023-12-14T10:43:10;19.40;91.70
32787;DHT22;19139;49.372;8.580;2023-12-14T10:45:43;19.40;91.70
32787;DHT22;19139;49.372;8.580;2023-12-14T10:48:10;19.50;91.70
32787;DHT22;19139;49.372;8.580;2023-12-14T10:50:42;19.40;91.70
32787;DHT22;19139;49.372;8.580;2023-12-14T10:53:09;19.50;91.70
32787;DHT22;19139;49.372;8.580;2023-12-14T10:55:37;19.40;91.70
32787;DHT22;19139;49.372;8.580;2023-12-14T10:58:04;19.40;91.70
32787;DHT22;19139;49.372;8.580;2023-12-14T11:00:31;19.40;91.70
32787;DHT22;19139;49.372;8.580;2023-12-14T11:02:59;19.40;91.70
32787;DHT22;19139;49.372;8.580;2023-12-14T11:05:27;19.40;91.70
32787;DHT22;19139;49.372;8.580;2023-12-14T11:08:01;19.40;91.70
32787;DHT22;19139;49.372;8.580;2023-12-14T11:10:42;19.40;91.70
32787;DHT22;19139;49.372;8.580;2023-12-14T11:13:11;19.50;91.60
32787;DHT22;19139;49.372;8.580;2023-12-14T11:15:48;19.50;91.60
32787;DHT22;19139;49.372;8.580;2023-12-14T11:18:20;19.50;91.60
32787;DHT22;19139;49.372;8.580;2023-12-14T11:23:27;19.50;91.60
32787;DHT22;19139;49.372;8.580;2023-12-14T11:26:03;19.50;91.60
32787;DHT22;19139;49.372;8.580;2023-12-14T11:28:32;19.50;91.60
32787;DHT22;19139;49.372;8.580;2023-12-14T11:31:00;19.50;91.60
32787;DHT22;19139;49.372;8.580;2023-12-14T11:33:28;19.50;91.50
32787;DHT22;19139;49.372;8.580;2023-12-14T11:35:55;19.50;91.50
32787;DHT22;19139;49.372;8.580;2023-12-14T11:38:24;19.50;91.60
32787;DHT22;19139;49.372;8.580;2023-12-14T11:40:51;19.50;91.50
32787;DHT22;19139;49.372;8.580;2023-12-14T11:43:18;19.50;91.60
32787;DHT22;19139;49.372;8.580;2023-12-14T11:45:48;19.50;91.60
32787;DHT22;19139;49.372;8.580;2023-12-14T11:48:15;19.50;91.60
32787;DHT22;19139;49.372;8.580;2023-12-14T11:50:43;19.50;91.60
32787;DHT22;19139;49.372;8.580;2023-12-14T11:53:10;19.50;91.60
32787;DHT22;19139;49.372;8.580;2023-12-14T11:55:39;19.50;91.60
32787;DHT22;19139;49.372;8.580;2023-12-14T11:58:07;19.50;91.60
32787;DHT22;19139;49.372;8.580;2023-12-14T12:00:35;19.50;91.60
32787;DHT22;19139;49.372;8.580;2023-12-14T12:03:14;19.50;91.60
32787;DHT22;19139;49.372;8.580;2023-12-14T12:05:46;19.50;91.60
32787;DHT22;19139;49.372;8.580;2023-12-14T12:08:15;19.50;91.60
32787;DHT22;19139;49.372;8.580;2023-12-14T12:10:42;19.50;91.60
32787;DHT22;19139;49.372;8.580;2023-12-14T12:13:15;19.50;91.50
32787;DHT22;19139;49.372;8.580;2023-12-14T12:15:42;19.50;91.60
32787;DHT22;19139;49.372;8.580;2023-12-14T12:18:10;19.50;91.60
32787;DHT22;19139;49.372;8.580;2023-12-14T12:20:38;19.50;91.60
32787;DHT22;19139;49.372;8.580;2023-12-14T12:23:04;19.50;91.60
32787;DHT22;19139;49.372;8.580;2023-12-14T12:25:32;19.50;91.60
32787;DHT22;19139;49.372;8.580;2023-12-14T12:28:00;19.40;91.50
32787;DHT22;19139;49.372;8.580;2023-12-14T12:30:28;19.40;91.50
32787;DHT22;19139;49.372;8.580;2023-12-14T12:32:55;19.40;91.50
32787;DHT22;19139;49.372;8.580;2023-12-14T12:35:23;19.50;91.50
32787;DHT22;19139;49.372;8.580;2023-12-14T12:37:50;19.40;91.50
32787;DHT22;19139;49.372;8.580;2023-12-14T12:40:21;19.40;91.50
32787;DHT22;19139;49.372;8.580;2023-12-14T12:42:49;19.40;91.50
32787;DHT22;19139;49.372;8.580;2023-12-14T12:45:16;19.40;91.50
32787;DHT22;19139;49.372;8.580;2023-12-14T12:47:49;19.50;91.50
32787;DHT22;19139;49.372;8.580;2023-12-14T12:50:16;19.40;91.50
32787;DHT22;19139;49.372;8.580;2023-12-14T12:52:43;19.40;91.50
32787;DHT22;19139;49.372;8.580;2023-12-14T12:55:11;19.40;91.50
32787;DHT22;19139;49.372;8.580;2023-12-14T12:57:38;19.40;91.60
32787;DHT22;19139;49.372;8.580;2023-12-14T13:00:05;19.40;91.50
32787;DHT22;19139;49.372;8.580;2023-12-14T13:02:34;19.40;91.60
32787;DHT22;19139;49.372;8.580;2023-12-14T13:05:01;19.40;91.50
32787;DHT22;19139;49.372;8.580;2023-12-14T13:07:28;19.40;91.90
32787;DHT22;19139;49.372;8.580;2023-12-14T13:09:55;19.40;91.50
32787;DHT22;19139;49.372;8.580;2023-12-14T13:12:22;19.40;91.60
32787;DHT22;19139;49.372;8.580;2023-12-14T13:14:49;19.40;91.50
32787;DHT22;19139;49.372;8.580;2023-12-14T13:17:16;19.40;91.50
32787;DHT22;19139;49.372;8.580;2023-12-14T13:19:45;19.40;91.50
32787;DHT22;19139;49.372;8.580;2023-12-14T13:22:11;19.40;91.50
32787;DHT22;19139;49.372;8.580;2023-12-14T13:24:38;19.40;91.50
32787;DHT22;19139;49.372;8.580;2023-12-14T13:27:05;19.50;91.50
32787;DHT22;19139;49.372;8.580;2023-12-14T13:29:32;19.50;91.50
32787;DHT22;19139;49.372;8.580;2023-12-14T13:31:59;19.50;91.50
32787;DHT22;19139;49.372;8.580;2023-12-14T13:34:27;19.40;91.50
32787;DHT22;19139;49.372;8.580;2023-12-14T13:36:56;19.50;91.50
32787;DHT22;19139;49.372;8.580;2023-12-14T13:39:27;19.50;91.50
32787;DHT22;19139;49.372;8.580;2023-12-14T13:41:54;19.40;91.50
32787;DHT22;19139;49.372;8.580;2023-12-14T13:44:20;19.40;91.50
32787;DHT22;19139;49.372;8.580;2023-12-14T13:46:47;19.50;91.50
32787;DHT22;19139;49.372;8.580;2023-12-14T13:49:14;19.40;91.50
32787;DHT22;19139;49.372;8.580;2023-12-14T13:51:41;19.40;91.60
32787;DHT22;19139;49.372;8.580;2023-12-14T13:54:08;19.50;91.70
32787;DHT22;19139;49.372;8.580;2023-12-14T13:56:35;19.50;91.90
32787;DHT22;19139;49.372;8.580;2023-12-14T13:59:01;19.50;92.00
32787;DHT22;19139;49.372;8.580;2023-12-14T14:01:28;19.50;92.00
32787;DHT22;19139;49.372;8.580;2023-12-14T14:03:55;19.50;92.10
32787;DHT22;19139;49.372;8.580;2023-12-14T14:06:21;19.50;92.10
32787;DHT22;19139;49.372;8.580;2023-12-14T14:08:50;19.50;92.10
32787;DHT22;19139;49.372;8.580;2023-12-14T14:11:16;19.60;92.20
32787;DHT22;19139;49.372;8.580;2023-12-14T14:13:43;19.60;92.30
32787;DHT22;19139;49.372;8.580;2023-12-14T14:16:10;19.60;92.20
32787;DHT22;19139;49.372;8.580;2023-12-14T14:18:37;19.60;92.20
32787;DHT22;19139;49.372;8.580;2023-12-14T14:21:04;19.60;92.20
32787;DHT22;19139;49.372;8.580;2023-12-14T14:23:34;19.60;92.40
32787;DHT22;19139;49.372;8.580;2023-12-14T14:26:01;19.60;92.40
32787;DHT22;19139;49.372;8.580;2023-12-14T14:28:28;19.60;92.50
32787;DHT22;19139;49.372;8.580;2023-12-14T14:30:55;19.60;92.50
32787;DHT22;19139;49.372;8.580;2023-12-14T14:33:22;19.60;92.50
32787;DHT22;19139;49.372;8.580;2023-12-14T14:35:49;19.60;92.50
32787;DHT22;19139;49.372;8.580;2023-12-14T14:38:17;19.60;92.50
32787;DHT22;19139;49.372;8.580;2023-12-14T14:40:44;19.60;92.60
32787;DHT22;19139;49.372;8.580;2023-12-14T14:43:11;19.60;92.60
32787;DHT22;19139;49.372;8.580;2023-12-14T14:45:38;19.60;92.70
32787;DHT22;19139;49.372;8.580;2023-12-14T14:48:06;19.60;92.70
32787;DHT22;19139;49.372;8.580;2023-12-14T14:50:34;19.70;92.60
32787;DHT22;19139;49.372;8.580;2023-12-14T14:53:01;19.70;92.70
32787;DHT22;19139;49.372;8.580;2023-12-14T14:55:29;19.70;92.70
32787;DHT22;19139;49.372;8.580;2023-12-14T14:57:56;19.70;92.80
32787;DHT22;19139;49.372;8.580;2023-12-14T15:00:24;19.70;92.80
32787;DHT22;19139;49.372;8.580;2023-12-14T15:02:50;19.70;92.80
32787;DHT22;19139;49.372;8.580;2023-12-14T15:05:17;19.70;92.80
32787;DHT22;19139;49.372;8.580;2023-12-14T15:07:44;19.70;92.80
32787;DHT22;19139;49.372;8.580;2023-12-14T15:10:10;19.70;92.70
32787;DHT22;19139;49.372;8.580;2023-12-14T15:12:37;19.70;92.80
32787;DHT22;19139;49.372;8.580;2023-12-14T15:15:04;19.70;92.80
32787;DHT22;19139;49.372;8.580;2023-12-14T15:17:35;19.70;92.70
32787;DHT22;19139;49.372;8.580;2023-12-14T15:20:03;19.70;92.70
32787;DHT22;19139;49.372;8.580;2023-12-14T15:22:32;19.70;93.00
32787;DHT22;19139;49.372;8.580;2023-12-14T15:24:59;19.70;92.80
32787;DHT22;19139;49.372;8.580;2023-12-14T15:27:26;19.70;92.80
32787;DHT22;19139;49.372;8.580;2023-12-14T15:29:53;19.70;92.90
32787;DHT22;19139;49.372;8.580;2023-12-14T15:32:20;19.70;92.70
32787;DHT22;19139;49.372;8.580;2023-12-14T15:34:47;19.70;92.70